sensor_id;sensor_type;location;lat;lon;timestamp;temperature;humidity
65046;DHT22;54657;52.022;5.534;2022-08-18T00:01:40;20.70;81.30
65046;DHT22;54657;52.022;5.534;2022-08-18T00:04:08;20.70;81.60
65046;DHT22;54657;52.022;5.534;2022-08-18T00:06:34;20.70;81.70
65046;DHT22;54657;52.022;5.534;2022-08-18T00:09:02;20.70;81.50
65046;DHT22;54657;52.022;5.534;2022-08-18T00:11:31;20.70;81.40
65046;DHT22;54657;52.022;5.534;2022-08-18T00:13:57;20.70;81.00
65046;DHT22;54657;52.022;5.534;2022-08-18T00:16:23;20.80;80.90
65046;DHT22;54657;52.022;5.534;2022-08-18T00:18:48;20.80;80.90
65046;DHT22;54657;52.022;5.534;2022-08-18T00:21:14;20.80;80.70
65046;DHT22;54657;52.022;5.534;2022-08-18T00:23:40;20.80;80.70
65046;DHT22;54657;52.022;5.534;2022-08-18T00:26:05;20.70;80.60
65046;DHT22;54657;52.022;5.534;2022-08-18T00:28:31;20.70;80.70
65046;DHT22;54657;52.022;5.534;2022-08-18T00:30:56;20.70;80.80
65046;DHT22;54657;52.022;5.534;2022-08-18T00:33:22;20.70;81.40
65046;DHT22;54657;52.022;5.534;2022-08-18T00:35:48;20.60;80.80
65046;DHT22;54657;52.022;5.534;2022-08-18T00:38:13;20.70;80.80
65046;DHT22;54657;52.022;5.534;2022-08-18T00:40:47;20.70;80.80
65046;DHT22;54657;52.022;5.534;2022-08-18T00:43:19;20.60;80.90
65046;DHT22;54657;52.022;5.534;2022-08-18T00:45:45;20.60;80.80
65046;DHT22;54657;52.022;5.534;2022-08-18T00:48:12;20.70;81.20
65046;DHT22;54657;52.022;5.534;2022-08-18T00:50:48;20.60;80.80
65046;DHT22;54657;52.022;5.534;2022-08-18T00:53:27;20.60;81.00
65046;DHT22;54657;52.022;5.534;2022-08-18T00:55:56;20.60;80.90
65046;DHT22;54657;52.022;5.534;2022-08-18T00:58:30;20.60;80.70
65046;DHT22;54657;52.022;5.534;2022-08-18T01:00:58;20.60;80.90
65046;DHT22;54657;52.022;5.534;2022-08-18T01:03:24;20.60;80.90
65046;DHT22;54657;52.022;5.534;2022-08-18T01:06:00;20.60;80.80
65046;DHT22;54657;52.022;5.534;2022-08-18T01:08:26;20.60;80.70
65046;DHT22;54657;52.022;5.534;2022-08-18T01:10:52;20.60;80.70
65046;DHT22;54657;52.022;5.534;2022-08-18T01:13:19;20.50;80.70
65046;DHT22;54657;52.022;5.534;2022-08-18T01:15:44;20.60;80.60
65046;DHT22;54657;52.022;5.534;2022-08-18T01:18:13;20.60;80.40
65046;DHT22;54657;52.022;5.534;2022-08-18T01:21:21;20.60;80.50
65046;DHT22;54657;52.022;5.534;2022-08-18T01:24:10;20.60;81.00
65046;DHT22;54657;52.022;5.534;2022-08-18T01:26:38;20.50;80.80
65046;DHT22;54657;52.022;5.534;2022-08-18T01:29:10;20.50;80.70
65046;DHT22;54657;52.022;5.534;2022-08-18T01:31:41;20.60;80.60
65046;DHT22;54657;52.022;5.534;2022-08-18T01:34:09;20.60;80.50
65046;DHT22;54657;52.022;5.534;2022-08-18T01:36:36;20.60;80.30
65046;DHT22;54657;52.022;5.534;2022-08-18T01:39:04;20.70;80.20
65046;DHT22;54657;52.022;5.534;2022-08-18T01:41:30;20.60;80.20
65046;DHT22;54657;52.022;5.534;2022-08-18T01:43:57;20.60;80.60
65046;DHT22;54657;52.022;5.534;2022-08-18T01:46:25;20.50;81.00
65046;DHT22;54657;52.022;5.534;2022-08-18T01:48:50;20.60;80.90
65046;DHT22;54657;52.022;5.534;2022-08-18T01:51:16;20.60;80.70
65046;DHT22;54657;52.022;5.534;2022-08-18T01:53:44;20.50;80.90
65046;DHT22;54657;52.022;5.534;2022-08-18T01:56:10;20.50;80.80
65046;DHT22;54657;52.022;5.534;2022-08-18T01:58:43;20.60;80.70
65046;DHT22;54657;52.022;5.534;2022-08-18T02:01:10;20.60;80.70
65046;DHT22;54657;52.022;5.534;2022-08-18T02:03:41;20.60;80.70
65046;DHT22;54657;52.022;5.534;2022-08-18T02:06:10;20.60;80.50
65046;DHT22;54657;52.022;5.534;2022-08-18T02:08:36;20.60;80.40
65046;DHT22;54657;52.022;5.534;2022-08-18T02:11:03;20.60;80.40
65046;DHT22;54657;52.022;5.534;2022-08-18T02:13:29;20.60;80.40
65046;DHT22;54657;52.022;5.534;2022-08-18T02:15:55;20.60;80.40
65046;DHT22;54657;52.022;5.534;2022-08-18T02:18:25;20.60;80.30
65046;DHT22;54657;52.022;5.534;2022-08-18T02:20:56;20.60;80.40
65046;DHT22;54657;52.022;5.534;2022-08-18T02:23:22;20.60;80.30
65046;DHT22;54657;52.022;5.534;2022-08-18T02:25:48;20.50;80.30
65046;DHT22;54657;52.022;5.534;2022-08-18T02:28:13;20.60;80.50
65046;DHT22;54657;52.022;5.534;2022-08-18T02:30:39;20.60;80.40
65046;DHT22;54657;52.022;5.534;2022-08-18T02:33:06;20.60;80.20
65046;DHT22;54657;52.022;5.534;2022-08-18T02:35:32;20.60;80.20
65046;DHT22;54657;52.022;5.534;2022-08-18T02:38:03;20.60;80.20
65046;DHT22;54657;52.022;5.534;2022-08-18T02:40:29;20.70;80.40
65046;DHT22;54657;52.022;5.534;2022-08-18T02:42:57;20.60;80.30
65046;DHT22;54657;52.022;5.534;2022-08-18T02:45:22;20.60;80.20
65046;DHT22;54657;52.022;5.534;2022-08-18T02:47:55;20.60;80.20
65046;DHT22;54657;52.022;5.534;2022-08-18T02:50:21;20.60;80.40
65046;DHT22;54657;52.022;5.534;2022-08-18T02:52:47;20.60;80.30
65046;DHT22;54657;52.022;5.534;2022-08-18T02:55:14;20.60;80.30
65046;DHT22;54657;52.022;5.534;2022-08-18T02:57:45;20.60;80.30
65046;DHT22;54657;52.022;5.534;2022-08-18T03:00:13;20.70;80.40
65046;DHT22;54657;52.022;5.534;2022-08-18T03:02:44;20.60;80.40
65046;DHT22;54657;52.022;5.534;2022-08-18T03:05:09;20.60;80.60
65046;DHT22;54657;52.022;5.534;2022-08-18T03:07:35;20.50;80.80
65046;DHT22;54657;52.022;5.534;2022-08-18T03:10:00;20.40;80.80
65046;DHT22;54657;52.022;5.534;2022-08-18T03:12:26;20.40;80.90
65046;DHT22;54657;52.022;5.534;2022-08-18T03:14:52;20.40;81.00
65046;DHT22;54657;52.022;5.534;2022-08-18T03:17:17;20.40;80.90
65046;DHT22;54657;52.022;5.534;2022-08-18T03:19:43;20.40;81.00
65046;DHT22;54657;52.022;5.534;2022-08-18T03:22:10;20.30;81.20
65046;DHT22;54657;52.022;5.534;2022-08-18T03:24:36;20.20;81.40
65046;DHT22;54657;52.022;5.534;2022-08-18T03:27:05;20.20;81.60
65046;DHT22;54657;52.022;5.534;2022-08-18T03:29:32;20.20;81.50
65046;DHT22;54657;52.022;5.534;2022-08-18T03:32:02;20.30;81.20
65046;DHT22;54657;52.022;5.534;2022-08-18T03:34:28;20.30;80.90
65046;DHT22;54657;52.022;5.534;2022-08-18T03:36:54;20.40;80.90
65046;DHT22;54657;52.022;5.534;2022-08-18T03:39:20;20.30;80.70
65046;DHT22;54657;52.022;5.534;2022-08-18T03:41:47;20.30;80.80
65046;DHT22;54657;52.022;5.534;2022-08-18T03:44:14;20.30;80.80
65046;DHT22;54657;52.022;5.534;2022-08-18T03:46:41;20.30;80.90
65046;DHT22;54657;52.022;5.534;2022-08-18T03:49:07;20.20;80.90
65046;DHT22;54657;52.022;5.534;2022-08-18T03:51:33;20.20;81.20
65046;DHT22;54657;52.022;5.534;2022-08-18T03:54:01;20.20;81.40
65046;DHT22;54657;52.022;5.534;2022-08-18T03:56:35;20.20;81.50
65046;DHT22;54657;52.022;5.534;2022-08-18T03:59:08;20.20;81.30
65046;DHT22;54657;52.022;5.534;2022-08-18T04:01:37;20.20;81.20
65046;DHT22;54657;52.022;5.534;2022-08-18T04:04:08;20.20;80.90
65046;DHT22;54657;52.022;5.534;2022-08-18T04:06:37;20.20;80.80
65046;DHT22;54657;52.022;5.534;2022-08-18T04:09:06;20.20;80.80
65046;DHT22;54657;52.022;5.534;2022-08-18T04:11:33;20.20;80.70
65046;DHT22;54657;52.022;5.534;2022-08-18T04:13:59;20.10;80.80
65046;DHT22;54657;52.022;5.534;2022-08-18T04:16:26;20.10;81.10
65046;DHT22;54657;52.022;5.534;2022-08-18T04:18:52;20.00;81.10
65046;DHT22;54657;52.022;5.534;2022-08-18T04:21:18;20.00;81.30
65046;DHT22;54657;52.022;5.534;2022-08-18T04:23:44;19.90;81.50
65046;DHT22;54657;52.022;5.534;2022-08-18T04:26:11;19.90;81.80
65046;DHT22;54657;52.022;5.534;2022-08-18T04:28:37;19.90;81.70
65046;DHT22;54657;52.022;5.534;2022-08-18T04:31:09;19.90;81.70
65046;DHT22;54657;52.022;5.534;2022-08-18T04:33:36;20.00;81.70
65046;DHT22;54657;52.022;5.534;2022-08-18T04:36:13;20.00;81.50
65046;DHT22;54657;52.022;5.534;2022-08-18T04:38:40;20.00;81.70
65046;DHT22;54657;52.022;5.534;2022-08-18T04:41:13;20.00;81.10
65046;DHT22;54657;52.022;5.534;2022-08-18T04:43:39;20.10;81.10
65046;DHT22;54657;52.022;5.534;2022-08-18T04:46:05;20.10;81.00
65046;DHT22;54657;52.022;5.534;2022-08-18T04:48:34;20.10;81.00
65046;DHT22;54657;52.022;5.534;2022-08-18T04:51:11;20.10;81.10
65046;DHT22;54657;52.022;5.534;2022-08-18T04:53:38;20.10;81.10
65046;DHT22;54657;52.022;5.534;2022-08-18T04:56:26;20.10;81.00
65046;DHT22;54657;52.022;5.534;2022-08-18T04:59:01;20.10;81.10
65046;DHT22;54657;52.022;5.534;2022-08-18T05:01:29;20.10;81.30
65046;DHT22;54657;52.022;5.534;2022-08-18T05:03:56;20.10;81.10
65046;DHT22;54657;52.022;5.534;2022-08-18T05:06:25;20.00;81.30
65046;DHT22;54657;52.022;5.534;2022-08-18T05:08:53;20.10;81.40
65046;DHT22;54657;52.022;5.534;2022-08-18T05:11:20;20.00;81.40
65046;DHT22;54657;52.022;5.534;2022-08-18T05:13:47;20.00;81.50
65046;DHT22;54657;52.022;5.534;2022-08-18T05:16:12;20.00;81.60
65046;DHT22;54657;52.022;5.534;2022-08-18T05:18:38;20.00;81.50
65046;DHT22;54657;52.022;5.534;2022-08-18T05:21:06;20.00;81.50
65046;DHT22;54657;52.022;5.534;2022-08-18T05:23:35;20.10;81.40
65046;DHT22;54657;52.022;5.534;2022-08-18T05:26:03;20.10;81.40
65046;DHT22;54657;52.022;5.534;2022-08-18T05:28:30;20.10;81.40
65046;DHT22;54657;52.022;5.534;2022-08-18T05:30:56;20.10;81.50
65046;DHT22;54657;52.022;5.534;2022-08-18T05:33:23;20.10;81.70
65046;DHT22;54657;52.022;5.534;2022-08-18T05:36:01;20.00;81.80
65046;DHT22;54657;52.022;5.534;2022-08-18T05:41:18;20.00;82.30
65046;DHT22;54657;52.022;5.534;2022-08-18T05:43:45;20.00;82.20
65046;DHT22;54657;52.022;5.534;2022-08-18T05:46:13;20.00;82.30
65046;DHT22;54657;52.022;5.534;2022-08-18T05:48:39;19.90;82.60
65046;DHT22;54657;52.022;5.534;2022-08-18T05:51:28;20.10;82.40
65046;DHT22;54657;52.022;5.534;2022-08-18T05:53:55;20.00;82.30
65046;DHT22;54657;52.022;5.534;2022-08-18T05:56:41;20.00;82.30
65046;DHT22;54657;52.022;5.534;2022-08-18T05:59:33;20.10;82.20
65046;DHT22;54657;52.022;5.534;2022-08-18T06:02:12;20.20;82.20
65046;DHT22;54657;52.022;5.534;2022-08-18T06:04:41;20.20;82.00
65046;DHT22;54657;52.022;5.534;2022-08-18T06:07:13;20.30;81.70
65046;DHT22;54657;52.022;5.534;2022-08-18T06:09:49;20.30;81.60
65046;DHT22;54657;52.022;5.534;2022-08-18T06:12:30;20.40;81.60
65046;DHT22;54657;52.022;5.534;2022-08-18T06:15:13;20.40;81.50
65046;DHT22;54657;52.022;5.534;2022-08-18T06:26:36;20.60;81.40
65046;DHT22;54657;52.022;5.534;2022-08-18T06:32:17;20.60;81.60
65046;DHT22;54657;52.022;5.534;2022-08-18T06:41:11;20.80;82.20
65046;DHT22;54657;52.022;5.534;2022-08-18T06:43:42;20.80;82.10
65046;DHT22;54657;52.022;5.534;2022-08-18T06:46:15;20.80;82.60
65046;DHT22;54657;52.022;5.534;2022-08-18T06:48:50;20.90;82.20
65046;DHT22;54657;52.022;5.534;2022-08-18T06:51:20;20.90;82.30
65046;DHT22;54657;52.022;5.534;2022-08-18T06:54:00;21.00;81.80
65046;DHT22;54657;52.022;5.534;2022-08-18T07:01:49;21.20;82.40
65046;DHT22;54657;52.022;5.534;2022-08-18T07:07:28;21.30;82.40
65046;DHT22;54657;52.022;5.534;2022-08-18T07:09:55;21.30;81.80
65046;DHT22;54657;52.022;5.534;2022-08-18T07:12:24;21.30;81.50
65046;DHT22;54657;52.022;5.534;2022-08-18T07:14:54;21.40;81.60
65046;DHT22;54657;52.022;5.534;2022-08-18T07:17:23;21.40;81.40
65046;DHT22;54657;52.022;5.534;2022-08-18T07:20:09;21.50;81.20
65046;DHT22;54657;52.022;5.534;2022-08-18T07:22:53;21.60;81.10
65046;DHT22;54657;52.022;5.534;2022-08-18T07:25:23;21.70;81.20
65046;DHT22;54657;52.022;5.534;2022-08-18T07:27:50;21.70;80.50
65046;DHT22;54657;52.022;5.534;2022-08-18T07:35:22;21.90;80.50
65046;DHT22;54657;52.022;5.534;2022-08-18T07:38:00;21.90;80.30
65046;DHT22;54657;52.022;5.534;2022-08-18T07:41:10;22.10;80.30
65046;DHT22;54657;52.022;5.534;2022-08-18T07:43:27;22.20;79.80
65046;DHT22;54657;52.022;5.534;2022-08-18T07:45:58;22.30;79.70
65046;DHT22;54657;52.022;5.534;2022-08-18T07:48:31;22.40;79.20
65046;DHT22;54657;52.022;5.534;2022-08-18T07:56:30;22.40;79.10
65046;DHT22;54657;52.022;5.534;2022-08-18T07:59:11;22.60;79.20
65046;DHT22;54657;52.022;5.534;2022-08-18T08:01:56;22.60;78.80
65046;DHT22;54657;52.022;5.534;2022-08-18T08:04:41;22.60;78.40
65046;DHT22;54657;52.022;5.534;2022-08-18T08:07:14;22.50;78.60
65046;DHT22;54657;52.022;5.534;2022-08-18T08:15:41;22.70;78.50
65046;DHT22;54657;52.022;5.534;2022-08-18T08:18:58;22.60;78.50
65046;DHT22;54657;52.022;5.534;2022-08-18T08:21:16;22.70;79.00
65046;DHT22;54657;52.022;5.534;2022-08-18T08:24:18;22.80;78.70
65046;DHT22;54657;52.022;5.534;2022-08-18T08:34:40;22.90;76.00
65046;DHT22;54657;52.022;5.534;2022-08-18T08:37:15;22.90;77.50
65046;DHT22;54657;52.022;5.534;2022-08-18T08:39:51;23.00;77.50
65046;DHT22;54657;52.022;5.534;2022-08-18T08:42:39;23.10;77.60
65046;DHT22;54657;52.022;5.534;2022-08-18T08:45:28;23.20;75.30
65046;DHT22;54657;52.022;5.534;2022-08-18T08:48:16;23.30;75.90
65046;DHT22;54657;52.022;5.534;2022-08-18T08:50:57;23.40;76.50
65046;DHT22;54657;52.022;5.534;2022-08-18T08:53:32;23.40;75.80
65046;DHT22;54657;52.022;5.534;2022-08-18T08:56:02;23.50;75.30
65046;DHT22;54657;52.022;5.534;2022-08-18T08:58:50;23.50;76.00
65046;DHT22;54657;52.022;5.534;2022-08-18T09:16:12;23.60;74.20
65046;DHT22;54657;52.022;5.534;2022-08-18T09:21:42;23.70;73.80
65046;DHT22;54657;52.022;5.534;2022-08-18T09:24:30;23.70;74.60
65046;DHT22;54657;52.022;5.534;2022-08-18T09:37:49;24.20;73.00
65046;DHT22;54657;52.022;5.534;2022-08-18T09:40:48;24.30;72.40
65046;DHT22;54657;52.022;5.534;2022-08-18T09:43:38;24.40;72.30
65046;DHT22;54657;52.022;5.534;2022-08-18T09:46:06;24.50;72.60
65046;DHT22;54657;52.022;5.534;2022-08-18T09:48:37;24.50;72.60
65046;DHT22;54657;52.022;5.534;2022-08-18T09:51:34;24.50;71.70
65046;DHT22;54657;52.022;5.534;2022-08-18T09:54:13;24.50;71.30
65046;DHT22;54657;52.022;5.534;2022-08-18T10:01:59;24.50;69.00
65046;DHT22;54657;52.022;5.534;2022-08-18T10:04:29;24.50;70.50
65046;DHT22;54657;52.022;5.534;2022-08-18T10:10:02;24.50;69.30
65046;DHT22;54657;52.022;5.534;2022-08-18T10:17:49;24.70;67.90
65046;DHT22;54657;52.022;5.534;2022-08-18T10:20:29;24.80;70.20
65046;DHT22;54657;52.022;5.534;2022-08-18T10:22:58;24.90;69.00
65046;DHT22;54657;52.022;5.534;2022-08-18T10:28:03;25.10;68.00
65046;DHT22;54657;52.022;5.534;2022-08-18T10:33:00;25.20;69.10
65046;DHT22;54657;52.022;5.534;2022-08-18T10:38:20;25.30;67.40
65046;DHT22;54657;52.022;5.534;2022-08-18T10:40:59;25.30;67.50
65046;DHT22;54657;52.022;5.534;2022-08-18T10:43:36;25.20;68.20
65046;DHT22;54657;52.022;5.534;2022-08-18T10:46:04;25.20;68.60
65046;DHT22;54657;52.022;5.534;2022-08-18T10:48:38;25.20;69.20
65046;DHT22;54657;52.022;5.534;2022-08-18T11:01:49;25.10;67.50
65046;DHT22;54657;52.022;5.534;2022-08-18T11:04:35;25.10;68.20
65046;DHT22;54657;52.022;5.534;2022-08-18T11:09:33;25.00;68.70
65046;DHT22;54657;52.022;5.534;2022-08-18T11:12:01;25.00;69.10
65046;DHT22;54657;52.022;5.534;2022-08-18T11:19:59;24.90;67.40
65046;DHT22;54657;52.022;5.534;2022-08-18T11:22:31;24.90;69.10
65046;DHT22;54657;52.022;5.534;2022-08-18T11:24:57;24.90;68.50
65046;DHT22;54657;52.022;5.534;2022-08-18T11:27:34;25.00;68.80
65046;DHT22;54657;52.022;5.534;2022-08-18T11:30:02;25.00;67.60
65046;DHT22;54657;52.022;5.534;2022-08-18T11:32:32;25.00;68.00
65046;DHT22;54657;52.022;5.534;2022-08-18T11:37:36;25.10;67.50
65046;DHT22;54657;52.022;5.534;2022-08-18T11:40:29;25.20;67.00
65046;DHT22;54657;52.022;5.534;2022-08-18T11:58:51;24.90;65.90
65046;DHT22;54657;52.022;5.534;2022-08-18T12:07:05;24.90;67.60
65046;DHT22;54657;52.022;5.534;2022-08-18T12:09:36;24.90;67.30
65046;DHT22;54657;52.022;5.534;2022-08-18T12:12:13;24.80;67.30
65046;DHT22;54657;52.022;5.534;2022-08-18T12:14:59;24.90;67.50
65046;DHT22;54657;52.022;5.534;2022-08-18T12:17:26;25.00;67.00
65046;DHT22;54657;52.022;5.534;2022-08-18T12:19:53;25.00;67.50
65046;DHT22;54657;52.022;5.534;2022-08-18T12:22:21;25.00;66.90
65046;DHT22;54657;52.022;5.534;2022-08-18T12:24:48;25.00;67.10
65046;DHT22;54657;52.022;5.534;2022-08-18T12:27:16;25.00;66.90
65046;DHT22;54657;52.022;5.534;2022-08-18T12:29:42;25.00;66.60
65046;DHT22;54657;52.022;5.534;2022-08-18T12:32:08;25.00;66.80
65046;DHT22;54657;52.022;5.534;2022-08-18T12:34:34;25.10;66.50
65046;DHT22;54657;52.022;5.534;2022-08-18T12:37:00;25.00;66.40
65046;DHT22;54657;52.022;5.534;2022-08-18T12:39:26;25.00;66.50
65046;DHT22;54657;52.022;5.534;2022-08-18T12:41:53;25.00;66.50
65046;DHT22;54657;52.022;5.534;2022-08-18T12:44:19;25.00;66.30
65046;DHT22;54657;52.022;5.534;2022-08-18T12:46:44;25.20;66.40
65046;DHT22;54657;52.022;5.534;2022-08-18T12:49:14;25.20;65.90
65046;DHT22;54657;52.022;5.534;2022-08-18T12:51:41;25.10;65.90
65046;DHT22;54657;52.022;5.534;2022-08-18T12:54:06;25.20;66.30
65046;DHT22;54657;52.022;5.534;2022-08-18T12:56:32;25.20;65.80
65046;DHT22;54657;52.022;5.534;2022-08-18T12:59:00;25.20;65.90
65046;DHT22;54657;52.022;5.534;2022-08-18T13:01:26;25.10;65.90
65046;DHT22;54657;52.022;5.534;2022-08-18T13:03:53;25.20;66.00
65046;DHT22;54657;52.022;5.534;2022-08-18T13:06:21;25.20;65.80
65046;DHT22;54657;52.022;5.534;2022-08-18T13:08:48;25.30;65.80
65046;DHT22;54657;52.022;5.534;2022-08-18T13:11:15;25.20;65.70
65046;DHT22;54657;52.022;5.534;2022-08-18T13:13:41;25.20;65.80
65046;DHT22;54657;52.022;5.534;2022-08-18T13:16:07;25.20;65.90
65046;DHT22;54657;52.022;5.534;2022-08-18T13:18:33;25.20;65.60
65046;DHT22;54657;52.022;5.534;2022-08-18T13:21:00;25.20;65.80
65046;DHT22;54657;52.022;5.534;2022-08-18T13:23:26;25.30;65.60
65046;DHT22;54657;52.022;5.534;2022-08-18T13:25:53;25.30;65.20
65046;DHT22;54657;52.022;5.534;2022-08-18T13:28:19;25.30;65.30
65046;DHT22;54657;52.022;5.534;2022-08-18T13:30:44;25.30;65.10
65046;DHT22;54657;52.022;5.534;2022-08-18T13:33:10;25.30;65.20
65046;DHT22;54657;52.022;5.534;2022-08-18T13:35:36;25.40;64.90
65046;DHT22;54657;52.022;5.534;2022-08-18T13:38:02;25.50;64.80
65046;DHT22;54657;52.022;5.534;2022-08-18T13:40:30;25.40;64.70
65046;DHT22;54657;52.022;5.534;2022-08-18T13:42:55;25.50;64.80
65046;DHT22;54657;52.022;5.534;2022-08-18T13:45:21;25.60;64.70
65046;DHT22;54657;52.022;5.534;2022-08-18T13:47:48;25.60;64.50
65046;DHT22;54657;52.022;5.534;2022-08-18T13:50:14;25.60;64.10
65046;DHT22;54657;52.022;5.534;2022-08-18T13:52:41;25.60;64.10
65046;DHT22;54657;52.022;5.534;2022-08-18T13:55:13;25.60;64.10
65046;DHT22;54657;52.022;5.534;2022-08-18T13:57:40;25.70;63.80
65046;DHT22;54657;52.022;5.534;2022-08-18T14:00:13;25.90;63.80
65046;DHT22;54657;52.022;5.534;2022-08-18T14:02:40;25.90;64.10
65046;DHT22;54657;52.022;5.534;2022-08-18T14:05:06;25.90;63.40
65046;DHT22;54657;52.022;5.534;2022-08-18T14:07:34;25.90;63.10
65046;DHT22;54657;52.022;5.534;2022-08-18T14:10:01;26.00;63.20
65046;DHT22;54657;52.022;5.534;2022-08-18T14:12:27;26.00;63.20
65046;DHT22;54657;52.022;5.534;2022-08-18T14:14:53;25.90;63.10
65046;DHT22;54657;52.022;5.534;2022-08-18T14:17:22;26.00;63.00
65046;DHT22;54657;52.022;5.534;2022-08-18T14:19:49;26.10;63.00
65046;DHT22;54657;52.022;5.534;2022-08-18T14:22:33;26.10;63.00
65046;DHT22;54657;52.022;5.534;2022-08-18T14:25:17;26.00;62.90
65046;DHT22;54657;52.022;5.534;2022-08-18T14:28:01;26.00;63.00
65046;DHT22;54657;52.022;5.534;2022-08-18T14:30:26;26.10;63.20
65046;DHT22;54657;52.022;5.534;2022-08-18T14:32:52;26.00;63.20
65046;DHT22;54657;52.022;5.534;2022-08-18T14:35:18;26.00;63.10
65046;DHT22;54657;52.022;5.534;2022-08-18T14:37:44;25.80;63.20
65046;DHT22;54657;52.022;5.534;2022-08-18T14:40:10;25.80;63.40
65046;DHT22;54657;52.022;5.534;2022-08-18T14:42:37;25.70;64.10
65046;DHT22;54657;52.022;5.534;2022-08-18T14:45:04;25.70;63.70
65046;DHT22;54657;52.022;5.534;2022-08-18T14:47:31;25.60;63.80
65046;DHT22;54657;52.022;5.534;2022-08-18T14:49:57;25.60;63.80
65046;DHT22;54657;52.022;5.534;2022-08-18T14:52:23;25.50;64.10
65046;DHT22;54657;52.022;5.534;2022-08-18T14:54:49;25.50;64.30
65046;DHT22;54657;52.022;5.534;2022-08-18T14:57:15;25.40;63.90
65046;DHT22;54657;52.022;5.534;2022-08-18T14:59:41;25.40;64.30
65046;DHT22;54657;52.022;5.534;2022-08-18T15:02:08;25.40;64.30
65046;DHT22;54657;52.022;5.534;2022-08-18T15:04:35;25.50;64.00
65046;DHT22;54657;52.022;5.534;2022-08-18T15:07:00;25.50;63.80
65046;DHT22;54657;52.022;5.534;2022-08-18T15:09:27;25.50;63.50
65046;DHT22;54657;52.022;5.534;2022-08-18T15:11:55;25.60;63.80
65046;DHT22;54657;52.022;5.534;2022-08-18T15:14:24;25.70;63.60
65046;DHT22;54657;52.022;5.534;2022-08-18T15:16:50;25.80;63.40
65046;DHT22;54657;52.022;5.534;2022-08-18T15:19:16;25.80;63.40
65046;DHT22;54657;52.022;5.534;2022-08-18T15:21:42;25.90;63.30
65046;DHT22;54657;52.022;5.534;2022-08-18T15:24:26;25.90;62.90
65046;DHT22;54657;52.022;5.534;2022-08-18T15:27:10;25.80;63.10
65046;DHT22;54657;52.022;5.534;2022-08-18T15:29:36;25.80;63.20
65046;DHT22;54657;52.022;5.534;2022-08-18T15:32:01;25.70;63.10
65046;DHT22;54657;52.022;5.534;2022-08-18T15:34:27;25.60;63.40
65046;DHT22;54657;52.022;5.534;2022-08-18T15:36:54;25.50;63.50
65046;DHT22;54657;52.022;5.534;2022-08-18T15:39:21;25.50;63.50
65046;DHT22;54657;52.022;5.534;2022-08-18T15:41:47;25.40;63.40
65046;DHT22;54657;52.022;5.534;2022-08-18T15:44:16;25.30;63.40
65046;DHT22;54657;52.022;5.534;2022-08-18T15:46:42;25.30;63.40
65046;DHT22;54657;52.022;5.534;2022-08-18T15:49:08;25.30;63.20
65046;DHT22;54657;52.022;5.534;2022-08-18T15:51:36;25.40;63.30
65046;DHT22;54657;52.022;5.534;2022-08-18T15:54:03;25.50;63.10
65046;DHT22;54657;52.022;5.534;2022-08-18T15:56:29;25.60;62.70
65046;DHT22;54657;52.022;5.534;2022-08-18T15:58:56;25.60;62.50
65046;DHT22;54657;52.022;5.534;2022-08-18T16:01:24;25.70;62.30
65046;DHT22;54657;52.022;5.534;2022-08-18T16:03:50;25.80;62.30
65046;DHT22;54657;52.022;5.534;2022-08-18T16:06:20;25.70;62.30
65046;DHT22;54657;52.022;5.534;2022-08-18T16:08:47;25.70;62.10
65046;DHT22;54657;52.022;5.534;2022-08-18T16:11:14;25.60;62.20
65046;DHT22;54657;52.022;5.534;2022-08-18T16:13:40;25.60;63.00
65046;DHT22;54657;52.022;5.534;2022-08-18T16:16:14;25.60;62.50
65046;DHT22;54657;52.022;5.534;2022-08-18T16:18:41;25.60;62.50
65046;DHT22;54657;52.022;5.534;2022-08-18T16:21:09;25.70;62.60
65046;DHT22;54657;52.022;5.534;2022-08-18T16:23:37;25.60;62.60
65046;DHT22;54657;52.022;5.534;2022-08-18T16:26:05;25.60;62.60
65046;DHT22;54657;52.022;5.534;2022-08-18T16:28:31;25.50;63.10
65046;DHT22;54657;52.022;5.534;2022-08-18T16:30:58;25.40;63.10
65046;DHT22;54657;52.022;5.534;2022-08-18T16:33:24;25.40;63.20
65046;DHT22;54657;52.022;5.534;2022-08-18T16:35:49;25.30;63.40
65046;DHT22;54657;52.022;5.534;2022-08-18T16:38:17;25.30;63.40
65046;DHT22;54657;52.022;5.534;2022-08-18T16:40:43;25.30;63.40
65046;DHT22;54657;52.022;5.534;2022-08-18T16:43:09;25.30;63.40
65046;DHT22;54657;52.022;5.534;2022-08-18T16:45:36;25.20;63.50
65046;DHT22;54657;52.022;5.534;2022-08-18T16:48:02;25.20;63.60
65046;DHT22;54657;52.022;5.534;2022-08-18T16:50:28;25.20;63.60
65046;DHT22;54657;52.022;5.534;2022-08-18T16:52:54;25.20;63.60
65046;DHT22;54657;52.022;5.534;2022-08-18T16:55:21;25.20;63.50
65046;DHT22;54657;52.022;5.534;2022-08-18T16:57:47;25.20;63.50
65046;DHT22;54657;52.022;5.534;2022-08-18T17:00:32;25.30;63.50
65046;DHT22;54657;52.022;5.534;2022-08-18T17:03:16;25.30;63.30
65046;DHT22;54657;52.022;5.534;2022-08-18T17:06:07;25.30;63.20
65046;DHT22;54657;52.022;5.534;2022-08-18T17:08:34;25.30;63.00
65046;DHT22;54657;52.022;5.534;2022-08-18T17:11:01;25.30;63.10
65046;DHT22;54657;52.022;5.534;2022-08-18T17:13:27;25.30;63.20
65046;DHT22;54657;52.022;5.534;2022-08-18T17:15:52;25.40;63.00
65046;DHT22;54657;52.022;5.534;2022-08-18T17:18:18;25.40;63.00
65046;DHT22;54657;52.022;5.534;2022-08-18T17:20:46;25.40;63.10
65046;DHT22;54657;52.022;5.534;2022-08-18T17:23:12;25.40;62.90
65046;DHT22;54657;52.022;5.534;2022-08-18T17:25:38;25.50;62.90
65046;DHT22;54657;52.022;5.534;2022-08-18T17:28:05;25.40;62.60
65046;DHT22;54657;52.022;5.534;2022-08-18T17:30:33;25.40;62.70
65046;DHT22;54657;52.022;5.534;2022-08-18T17:33:17;25.40;62.70
65046;DHT22;54657;52.022;5.534;2022-08-18T17:35:45;25.40;62.30
65046;DHT22;54657;52.022;5.534;2022-08-18T17:38:13;25.30;62.70
65046;DHT22;54657;52.022;5.534;2022-08-18T17:40:52;25.20;62.80
65046;DHT22;54657;52.022;5.534;2022-08-18T17:43:24;25.20;62.40
65046;DHT22;54657;52.022;5.534;2022-08-18T17:46:38;25.10;63.00
65046;DHT22;54657;52.022;5.534;2022-08-18T17:51:46;25.00;62.90
65046;DHT22;54657;52.022;5.534;2022-08-18T17:54:35;25.00;63.00
65046;DHT22;54657;52.022;5.534;2022-08-18T17:57:08;25.00;62.90
65046;DHT22;54657;52.022;5.534;2022-08-18T17:59:51;25.00;63.40
65046;DHT22;54657;52.022;5.534;2022-08-18T18:02:21;24.90;63.40
65046;DHT22;54657;52.022;5.534;2022-08-18T18:04:48;24.80;63.90
65046;DHT22;54657;52.022;5.534;2022-08-18T18:07:31;24.70;63.90
65046;DHT22;54657;52.022;5.534;2022-08-18T18:10:11;24.70;63.90
65046;DHT22;54657;52.022;5.534;2022-08-18T18:12:38;24.70;64.20
65046;DHT22;54657;52.022;5.534;2022-08-18T18:15:08;24.60;64.40
65046;DHT22;54657;52.022;5.534;2022-08-18T18:17:37;24.60;64.30
65046;DHT22;54657;52.022;5.534;2022-08-18T18:22:50;24.60;64.10